Aérodrome :
LOGIN :

S'inscrire | Disclaimer

   EN    FR    IT 

 










Légende :    VFR   VFR Marginal   IFR   IFR Intensif   IFR Très Intensif
Visi : 
Plafond : 
>= 8 km
>= 3000ft
5 à 8 km
1000 à 3000 ft
1500m à 5 km
500 à 1000 ft
800 à 1500m
200 à 500 ft
< 800m
< 200 ft
Symboles :   Orages  Brouillard  Fortes neiges  Fortes précipitations  Vent > 20 kt
SIGMETs :   Divers  Orages  Givrage  Turbulence  Onde Orograph.  Cendres Volcan.






- Altitude de l'aérodrome : 129 ft
- Code IATA : ZCN


ETHC - Celle

DERNIER METAR :
  • 181731Z 32010KT 4500 VCTS BR BKN015 SCT024CB 16/16 Q1011 GRN

METARs EXPIRÉS :
  • 181720Z 30007KT 3000 +SHRA SCT015 BKN024CB BKN043 17/16 Q1011 YLO
  • 181702Z 32006KT 7000 SHRA FEW029CB SCT043 OVC080 17/16 Q1011 WHT
  • 181655Z 33007KT 4000 +SHRA BKN029CB OVC080 17/16 Q1011 GRN
  • 181646Z 33007KT 5000 SHRA BKN032CB OVC080 18/16 Q1011 WHT
  • 181639Z 33005KT 7000 -SHRA BKN032 SCT040 OVC080 18/17 Q1011 WHT
  • 181620Z 33004KT 9999 -RA FEW034 SCT047 OVC090 19/17 Q1011 BLU
  • 181520Z 05007KT 9999 -RA SCT047 OVC090 21/15 Q1011 BLU FCST CNL
  • 181420Z 04007KT 9999 SCT070 BKN140 22/13 Q1012 BLU BLU TEMPO YLO
  • 181320Z 05005KT 9999 FEW040 SCT070 BKN160 23/13 Q1013 BLU BLU TEMPO YLO

TAF TAF ETHC
Valide du 18 à 11h jusqu'au 18 à 20h UTC


181022Z 1811/1820 09005KT 9000 -RA SCT030 BKN085
TEMPO 1815/1820 03007KT 3000 RA SCT015 BKN020
PROB30 1819/1820 VRB18G35KT 1000 +TSRA BKN005 BKN010CB



MET'MAP, la Météo Aéronautique d'un coup d'oeil ! - Copyright ORBIFLY Décembre 2007 - Disclaimer

ORBIFLY MET'MAP TEAM :

Programmation & Développement : Alexandra Zaïnal
Sur une idée originale de : Baudouin d'Aumeries
Soutien technique & logistique : Manuel Goepfert
Assistance : Marc-Olivier Méhu




SOURCES & CREDITS :

   NOAA